Time;durP1;ratioP1;P1;durP2;ratioP2;P2;SDS_P1;SDS_P2;PMS_P1;PMS_P2;Temp;Humidity;BMP_temperature;BMP_pressure;BME280_temperature;BME280_humidity;BME280_pressure;Samples;Min_cycle;Max_cycle;Signal;HPM_P1;HPM_P2
2023/10/25 00:01:30;;;;;;;1.05;0.60;;;;;;;;;;5040699;28;20060;-85
2023/10/25 00:03:55;;;;;;;1.48;0.80;;;;;;;;;;5038610;28;20033;-84
2023/10/25 00:06:21;;;;;;;1.80;1.30;;;;;;;;;;5035573;28;20578;-86
2023/10/25 00:08:46;;;;;;;2.47;1.35;;;;;;;;;;5029786;28;20030;-85
2023/10/25 00:11:12;;;;;;;1.63;1.20;;;;;;;;;;5037660;28;20045;-85
2023/10/25 00:13:37;;;;;;;1.98;1.05;;;;;;;;;;5040130;28;20064;-85
2023/10/25 00:16:03;;;;;;;2.22;0.85;;;;;;;;;;5037006;28;20137;-86
2023/10/25 00:18:30;;;;;;;1.30;0.90;;;;;;;;;;5032979;28;20124;-86
2023/10/25 00:20:55;;;;;;;2.05;1.05;;;;;;;;;;5032678;28;20030;-85
2023/10/25 00:23:21;;;;;;;2.30;0.90;;;;;;;;;;5042707;28;20041;-85
2023/10/25 00:25:48;;;;;;;2.08;1.13;;;;;;;;;;5038337;28;20102;-85
2023/10/25 00:28:14;;;;;;;3.25;1.00;;;;;;;;;;5032645;28;20040;-85
2023/10/25 00:30:40;;;;;;;1.65;1.10;;;;;;;;;;5029332;28;20540;-86
2023/10/25 00:33:05;;;;;;;1.92;1.05;;;;;;;;;;5041464;28;20083;-85
2023/10/25 00:35:31;;;;;;;2.78;1.25;;;;;;;;;;5039396;28;20103;-85
2023/10/25 00:37:57;;;;;;;2.65;1.05;;;;;;;;;;5034169;28;20037;-84
2023/10/25 00:40:23;;;;;;;4.05;0.95;;;;;;;;;;5029833;28;20049;-85
2023/10/25 00:42:49;;;;;;;1.70;1.02;;;;;;;;;;5037372;28;20037;-85
2023/10/25 00:45:14;;;;;;;0.90;0.90;;;;;;;;;;5040965;28;20063;-86
2023/10/25 00:47:41;;;;;;;1.88;1.00;;;;;;;;;;5036876;28;20033;-85
2023/10/25 00:50:12;;;;;;;1.95;1.00;;;;;;;;;;5030950;28;20037;-85
2023/10/25 00:52:38;;;;;;;1.92;1.15;;;;;;;;;;5032332;28;20040;-85
2023/10/25 00:55:04;;;;;;;1.67;0.90;;;;;;;;;;5041353;28;20022;-85
2023/10/25 00:57:31;;;;;;;0.88;0.88;;;;;;;;;;5035091;28;20504;-85
2023/10/25 00:59:57;;;;;;;1.58;0.95;;;;;;;;;;5032900;28;20030;-85
2023/10/25 01:02:22;;;;;;;1.13;0.90;;;;;;;;;;5027773;28;20415;-85
2023/10/25 01:04:48;;;;;;;2.60;1.48;;;;;;;;;;5042525;28;20037;-85
2023/10/25 01:07:15;;;;;;;4.28;1.90;;;;;;;;;;5038116;28;20114;-86
2023/10/25 01:09:40;;;;;;;1.20;1.10;;;;;;;;;;5030261;28;20065;-85
2023/10/25 01:12:06;;;;;;;2.20;1.20;;;;;;;;;;5026923;28;20037;-86
2023/10/25 01:14:32;;;;;;;2.55;1.00;;;;;;;;;;5037499;28;20653;-85
2023/10/25 01:16:57;;;;;;;1.10;0.82;;;;;;;;;;5038582;28;20068;-85
2023/10/25 01:19:23;;;;;;;3.05;1.10;;;;;;;;;;5034067;28;20041;-85
2023/10/25 01:21:48;;;;;;;1.65;1.00;;;;;;;;;;5029302;28;20025;-85
2023/10/25 01:24:14;;;;;;;1.55;1.17;;;;;;;;;;5033224;28;20041;-85
2023/10/25 01:26:40;;;;;;;1.30;1.10;;;;;;;;;;5022667;28;20107;-86
2023/10/25 01:29:05;;;;;;;2.00;0.80;;;;;;;;;;5035913;28;20057;-86
2023/10/25 01:31:31;;;;;;;1.58;0.80;;;;;;;;;;5033731;28;20042;-83
2023/10/25 01:33:56;;;;;;;2.42;0.85;;;;;;;;;;5030020;28;20021;-82
2023/10/25 01:36:22;;;;;;;2.10;1.23;;;;;;;;;;5040634;28;20443;-85
2023/10/25 01:38:47;;;;;;;1.45;1.15;;;;;;;;;;5036542;28;20551;-85
2023/10/25 01:41:16;;;;;;;1.63;0.90;;;;;;;;;;5031264;28;20033;-85
2023/10/25 01:43:44;;;;;;;0.82;0.77;;;;;;;;;;5028026;28;20037;-83
2023/10/25 01:46:10;;;;;;;1.90;1.00;;;;;;;;;;5037948;28;20029;-85
2023/10/25 01:48:37;;;;;;;1.30;0.88;;;;;;;;;;5038118;28;20129;-85
2023/10/25 01:51:06;;;;;;;2.63;1.00;;;;;;;;;;5032780;28;20038;-85
2023/10/25 01:53:35;;;;;;;1.30;1.05;;;;;;;;;;5025757;28;20060;-86
2023/10/25 01:56:01;;;;;;;2.00;0.90;;;;;;;;;;5034534;28;20038;-84
2023/10/25 01:58:27;;;;;;;1.15;0.80;;;;;;;;;;5037189;28;20064;-85
2023/10/25 02:00:53;;;;;;;1.20;1.00;;;;;;;;;;5033973;28;20043;-85
2023/10/25 02:03:18;;;;;;;10.40;6.57;;;;;;;;;;5027097;28;20109;-86
2023/10/25 02:05:44;;;;;;;5.35;3.80;;;;;;;;;;5029437;28;20034;-84
2023/10/25 02:08:09;;;;;;;2.88;1.50;;;;;;;;;;5040291;28;20034;-86
2023/10/25 02:10:35;;;;;;;1.27;1.10;;;;;;;;;;5035049;28;20097;-85
2023/10/25 02:13:01;;;;;;;1.48;1.10;;;;;;;;;;5030962;28;20038;-86
2023/10/25 02:15:27;;;;;;;1.60;1.15;;;;;;;;;;5025795;28;20030;-84
2023/10/25 02:17:53;;;;;;;1.52;0.90;;;;;;;;;;5038377;28;20041;-85
2023/10/25 02:20:19;;;;;;;0.70;0.70;;;;;;;;;;5035481;28;20057;-84
2023/10/25 02:22:44;;;;;;;5.32;1.30;;;;;;;;;;5030651;28;20101;-85
2023/10/25 02:25:09;;;;;;;2.00;1.00;;;;;;;;;;5027492;28;20029;-86
2023/10/25 02:27:35;;;;;;;2.65;0.90;;;;;;;;;;5033231;28;20034;-85
2023/10/25 02:30:00;;;;;;;2.08;1.20;;;;;;;;;;5038242;28;20033;-86
2023/10/25 02:32:28;;;;;;;1.83;1.38;;;;;;;;;;5033600;28;20040;-85
2023/10/25 02:34:53;;;;;;;2.33;1.35;;;;;;;;;;5028399;28;20038;-85
2023/10/25 02:37:19;;;;;;;2.35;1.17;;;;;;;;;;5028443;28;20069;-84
2023/10/25 02:39:45;;;;;;;1.73;0.75;;;;;;;;;;5040504;28;20065;-85
2023/10/25 02:42:12;;;;;;;1.02;0.80;;;;;;;;;;5034835;28;20037;-85
2023/10/25 02:44:38;;;;;;;0.80;0.63;;;;;;;;;;5027217;28;20045;-85
2023/10/25 02:47:05;;;;;;;1.35;0.45;;;;;;;;;;5025563;28;20089;-84
2023/10/25 02:49:33;;;;;;;0.50;0.50;;;;;;;;;;5040418;28;20045;-84
2023/10/25 02:51:58;;;;;;;0.82;0.75;;;;;;;;;;5033830;28;20037;-85
2023/10/25 02:54:24;;;;;;;0.45;0.45;;;;;;;;;;5039940;28;20037;-83
2023/10/25 02:56:49;;;;;;;0.80;0.60;;;;;;;;;;5021567;28;20033;-84
2023/10/25 02:59:15;;;;;;;1.27;0.45;;;;;;;;;;5041719;28;20591;-84
2023/10/25 03:01:40;;;;;;;0.50;0.50;;;;;;;;;;5037058;28;20029;-86
2023/10/25 03:04:05;;;;;;;0.68;0.60;;;;;;;;;;5033358;28;20037;-85
2023/10/25 03:06:31;;;;;;;0.35;0.35;;;;;;;;;;5025193;28;20112;-84
2023/10/25 03:08:57;;;;;;;1.60;0.60;;;;;;;;;;5029941;28;20033;-84
2023/10/25 03:11:22;;;;;;;0.40;0.35;;;;;;;;;;5036464;28;20038;-84
2023/10/25 03:13:49;;;;;;;0.45;0.40;;;;;;;;;;5032329;28;20112;-85
2023/10/25 03:16:15;;;;;;;0.52;0.52;;;;;;;;;;5029667;28;20072;-84
2023/10/25 03:18:40;;;;;;;1.10;0.52;;;;;;;;;;5008073;28;20504;-84
2023/10/25 03:21:06;;;;;;;3.50;0.55;;;;;;;;;;5024060;28;20098;-85
2023/10/25 03:23:32;;;;;;;0.40;0.40;;;;;;;;;;5040061;28;20045;-85
2023/10/25 03:26:07;;;;;;;2.90;0.50;;;;;;;;;;5031609;28;20026;-84
2023/10/25 03:28:33;;;;;;;1.42;0.63;;;;;;;;;;5023258;28;20173;-84
2023/10/25 03:31:06;;;;;;;0.40;0.40;;;;;;;;;;5036851;28;20021;-85
2023/10/25 03:33:32;;;;;;;1.00;0.45;;;;;;;;;;5032674;28;20443;-85
2023/10/25 03:35:58;;;;;;;0.50;0.50;;;;;;;;;;5027788;28;20141;-85
2023/10/25 03:38:23;;;;;;;0.47;0.40;;;;;;;;;;5008640;28;20480;-86
2023/10/25 03:41:02;;;;;;;2.15;0.40;;;;;;;;;;5029013;28;20279;-85
2023/10/25 03:43:28;;;;;;;1.23;0.40;;;;;;;;;;5012521;28;20053;-85
2023/10/25 03:45:54;;;;;;;2.13;0.43;;;;;;;;;;5014057;28;20084;-85
2023/10/25 03:48:19;;;;;;;0.50;0.50;;;;;;;;;;5008678;28;20025;-86
2023/10/25 03:50:48;;;;;;;0.73;0.50;;;;;;;;;;5024725;28;20033;-85
2023/10/25 03:53:13;;;;;;;1.17;0.43;;;;;;;;;;5037841;28;20064;-85
2023/10/25 03:55:39;;;;;;;0.93;0.80;;;;;;;;;;5034995;28;20029;-85
2023/10/25 03:58:04;;;;;;;1.02;0.80;;;;;;;;;;5029917;28;20567;-84
2023/10/25 04:00:30;;;;;;;1.10;1.00;;;;;;;;;;5025929;28;20085;-85
2023/10/25 04:02:55;;;;;;;1.38;0.85;;;;;;;;;;5038111;28;20038;-85
2023/10/25 04:05:21;;;;;;;0.93;0.82;;;;;;;;;;5035928;28;20077;-86
2023/10/25 04:07:50;;;;;;;2.67;1.15;;;;;;;;;;5030979;28;20037;-86
2023/10/25 04:10:16;;;;;;;0.80;0.80;;;;;;;;;;5025341;28;20030;-85
2023/10/25 04:12:41;;;;;;;1.42;0.80;;;;;;;;;;5033837;28;20033;-85
2023/10/25 04:15:07;;;;;;;1.90;0.90;;;;;;;;;;5020234;28;20112;-84
2023/10/25 04:17:33;;;;;;;1.00;0.70;;;;;;;;;;5032765;28;20060;-85
2023/10/25 04:19:58;;;;;;;3.58;1.80;;;;;;;;;;5026952;28;20042;-85
2023/10/25 04:22:24;;;;;;;2.80;2.45;;;;;;;;;;5024043;28;20033;-85
2023/10/25 04:24:49;;;;;;;1.80;1.30;;;;;;;;;;5039490;28;20041;-85
2023/10/25 04:27:15;;;;;;;1.38;0.93;;;;;;;;;;5032509;28;20475;-86
2023/10/25 04:29:40;;;;;;;1.23;0.90;;;;;;;;;;5028134;28;20041;-85
2023/10/25 04:32:06;;;;;;;3.83;1.90;;;;;;;;;;5037250;28;20042;-85
2023/10/25 04:34:31;;;;;;;9.20;6.00;;;;;;;;;;5039109;28;20137;-85
2023/10/25 04:36:57;;;;;;;4.95;3.50;;;;;;;;;;5035163;28;20029;-85
2023/10/25 04:39:22;;;;;;;1.40;1.23;;;;;;;;;;5031086;28;20065;-86
2023/10/25 04:41:48;;;;;;;1.73;1.33;;;;;;;;;;5021705;28;20035;-85
2023/10/25 04:44:14;;;;;;;1.83;1.27;;;;;;;;;;5033701;28;20076;-85
2023/10/25 04:46:40;;;;;;;3.70;2.28;;;;;;;;;;5037213;28;20037;-86
2023/10/25 04:49:05;;;;;;;4.57;3.42;;;;;;;;;;5035997;28;20057;-85
2023/10/25 04:51:31;;;;;;;4.20;3.25;;;;;;;;;;5029244;28;20040;-84
2023/10/25 04:53:56;;;;;;;1.73;1.50;;;;;;;;;;5031962;28;20120;-84
2023/10/25 04:56:25;;;;;;;2.40;1.10;;;;;;;;;;5040661;28;20038;-85
2023/10/25 04:58:50;;;;;;;1.30;1.00;;;;;;;;;;5003911;28;20119;-86
2023/10/25 05:01:16;;;;;;;0.90;0.80;;;;;;;;;;5031106;28;20545;-87
2023/10/25 05:03:43;;;;;;;0.90;0.80;;;;;;;;;;5026492;28;20064;-85
2023/10/25 05:06:09;;;;;;;2.08;1.70;;;;;;;;;;5035924;28;20037;-84
2023/10/25 05:08:35;;;;;;;3.38;1.20;;;;;;;;;;5038103;28;20129;-85
2023/10/25 05:11:05;;;;;;;1.40;1.00;;;;;;;;;;5033487;28;20069;-85
2023/10/25 05:13:32;;;;;;;1.25;0.90;;;;;;;;;;5031198;28;20037;-85
2023/10/25 05:15:58;;;;;;;1.20;0.90;;;;;;;;;;5018323;28;20076;-84
2023/10/25 05:18:24;;;;;;;1.00;0.90;;;;;;;;;;5039625;28;20037;-86
2023/10/25 05:20:58;;;;;;;1.23;0.93;;;;;;;;;;5034305;28;20025;-86
2023/10/25 05:23:31;;;;;;;1.83;0.90;;;;;;;;;;5027964;28;20056;-85
2023/10/25 05:25:58;;;;;;;;;;;;;;;;;;5036325;28;20042;-86
2023/10/25 05:28:24;;;;;;;1.67;0.60;;;;;;;;;;5038824;28;20251;-83
2023/10/25 05:30:53;;;;;;;0.90;0.70;;;;;;;;;;5034789;28;20040;-85
2023/10/25 05:33:19;;;;;;;1.38;0.70;;;;;;;;;;5031056;28;20057;-84
2023/10/25 05:35:45;;;;;;;3.28;2.70;;;;;;;;;;5033914;28;20037;-85
2023/10/25 05:38:11;;;;;;;2.00;1.20;;;;;;;;;;5041452;28;20052;-84
2023/10/25 05:40:37;;;;;;;1.50;1.17;;;;;;;;;;5038444;28;20034;-85
2023/10/25 05:43:04;;;;;;;2.58;1.30;;;;;;;;;;5029624;28;20034;-84
2023/10/25 05:45:30;;;;;;;2.05;1.23;;;;;;;;;;5029616;28;20053;-86
2023/10/25 05:47:55;;;;;;;1.45;1.17;;;;;;;;;;5041516;28;20045;-84
2023/10/25 05:50:21;;;;;;;1.20;1.00;;;;;;;;;;5037890;28;20037;-84
2023/10/25 05:52:47;;;;;;;1.60;1.00;;;;;;;;;;5033254;28;20040;-84
2023/10/25 05:55:16;;;;;;;1.90;1.50;;;;;;;;;;5023021;28;20046;-84
2023/10/25 05:57:42;;;;;;;3.05;2.38;;;;;;;;;;5039193;28;20064;-84
2023/10/25 06:00:07;;;;;;;5.55;2.10;;;;;;;;;;5037512;28;20033;-85
2023/10/25 06:02:33;;;;;;;1.92;1.30;;;;;;;;;;5032236;28;20423;-85
2023/10/25 06:05:00;;;;;;;1.42;1.02;;;;;;;;;;5028437;28;20038;-84
2023/10/25 06:07:27;;;;;;;2.65;1.10;;;;;;;;;;5032840;28;20041;-84
2023/10/25 06:09:55;;;;;;;1.17;1.08;;;;;;;;;;5038241;28;20541;-84
2023/10/25 06:12:22;;;;;;;1.77;1.02;;;;;;;;;;5032492;28;20040;-84
2023/10/25 06:14:48;;;;;;;2.35;1.40;;;;;;;;;;5028515;28;20045;-84
2023/10/25 06:17:14;;;;;;;1.70;1.20;;;;;;;;;;5029454;28;20041;-83
2023/10/25 06:19:39;;;;;;;4.63;2.90;;;;;;;;;;5038929;28;20053;-85
2023/10/25 06:22:05;;;;;;;9.15;5.50;;;;;;;;;;5032250;28;20121;-85
2023/10/25 06:24:30;;;;;;;6.38;4.43;;;;;;;;;;5026971;28;20069;-84
2023/10/25 06:26:56;;;;;;;4.80;2.90;;;;;;;;;;5005085;28;20101;-83
2023/10/25 06:29:21;;;;;;;4.63;2.60;;;;;;;;;;5037181;28;20500;-84
2023/10/25 06:31:50;;;;;;;4.13;2.17;;;;;;;;;;5036835;28;20093;-85
2023/10/25 06:34:20;;;;;;;2.92;2.00;;;;;;;;;;5031810;28;20104;-83
2023/10/25 06:36:46;;;;;;;3.63;1.98;;;;;;;;;;5025149;28;20034;-84
2023/10/25 06:39:12;;;;;;;2.30;1.77;;;;;;;;;;5025766;28;20116;-85
2023/10/25 06:41:38;;;;;;;1.75;1.60;;;;;;;;;;5026805;28;20145;-85
2023/10/25 06:44:05;;;;;;;3.58;1.90;;;;;;;;;;5017585;28;20058;-84
2023/10/25 06:46:31;;;;;;;2.88;1.95;;;;;;;;;;5021928;28;20037;-84
2023/10/25 06:48:58;;;;;;;1.90;1.70;;;;;;;;;;5029398;28;20041;-81
2023/10/25 06:51:26;;;;;;;2.20;1.90;;;;;;;;;;5037538;28;20129;-84
2023/10/25 06:53:53;;;;;;;1.80;1.50;;;;;;;;;;5032638;28;20052;-85
2023/10/25 06:56:19;;;;;;;2.45;1.55;;;;;;;;;;5029988;28;20040;-84
2023/10/25 06:58:45;;;;;;;1.20;1.10;;;;;;;;;;5024633;28;20032;-83
2023/10/25 07:01:13;;;;;;;4.32;1.35;;;;;;;;;;5028675;28;20032;-84
2023/10/25 07:03:49;;;;;;;1.40;1.30;;;;;;;;;;5035695;28;20029;-84
2023/10/25 07:06:16;;;;;;;1.25;1.00;;;;;;;;;;5028776;28;20075;-83
2023/10/25 07:08:43;;;;;;;4.88;1.35;;;;;;;;;;5023777;28;20095;-84
2023/10/25 07:11:09;;;;;;;1.55;1.00;;;;;;;;;;5025291;28;20098;-83
2023/10/25 07:13:34;;;;;;;1.17;0.90;;;;;;;;;;5026467;28;20496;-83
2023/10/25 07:16:00;;;;;;;2.38;1.38;;;;;;;;;;5022654;28;20072;-84
2023/10/25 07:18:25;;;;;;;1.30;1.20;;;;;;;;;;5017352;28;20072;-85
2023/10/25 07:20:51;;;;;;;2.17;1.30;;;;;;;;;;5032761;28;20044;-84
2023/10/25 07:23:17;;;;;;;1.38;1.00;;;;;;;;;;5036990;28;20032;-85
2023/10/25 07:25:43;;;;;;;0.98;0.90;;;;;;;;;;5032490;28;20042;-84
2023/10/25 07:28:09;;;;;;;1.50;1.30;;;;;;;;;;5029182;28;20029;-84
2023/10/25 07:30:34;;;;;;;1.10;1.00;;;;;;;;;;5026462;28;20187;-84
2023/10/25 07:33:00;;;;;;;1.88;1.05;;;;;;;;;;5038159;28;20041;-84
2023/10/25 07:35:26;;;;;;;1.67;1.23;;;;;;;;;;5030994;28;20561;-84
2023/10/25 07:37:51;;;;;;;5.30;1.30;;;;;;;;;;5025328;28;20048;-86
2023/10/25 07:40:17;;;;;;;3.03;1.27;;;;;;;;;;5024199;28;20037;-85
2023/10/25 07:42:42;;;;;;;1.65;1.20;;;;;;;;;;5036581;28;20116;-85
2023/10/25 07:45:08;;;;;;;2.40;2.00;;;;;;;;;;5035319;28;20038;-84
2023/10/25 07:47:34;;;;;;;3.28;1.00;;;;;;;;;;5027070;28;20037;-84
2023/10/25 07:49:59;;;;;;;3.00;0.90;;;;;;;;;;5024672;28;20053;-87
2023/10/25 07:52:27;;;;;;;3.17;1.50;;;;;;;;;;5027055;28;20132;-85
2023/10/25 07:54:53;;;;;;;0.98;0.95;;;;;;;;;;5018057;28;20109;-85
2023/10/25 07:57:19;;;;;;;2.45;1.20;;;;;;;;;;5028908;28;20033;-84
2023/10/25 07:59:45;;;;;;;2.03;1.20;;;;;;;;;;5008028;28;20030;-84
2023/10/25 08:02:11;;;;;;;1.20;1.00;;;;;;;;;;5003223;28;20045;-85
2023/10/25 08:04:37;;;;;;;2.50;0.90;;;;;;;;;;5019666;28;20120;-85
2023/10/25 08:07:02;;;;;;;1.70;0.95;;;;;;;;;;5014886;28;20089;-85
2023/10/25 08:09:28;;;;;;;0.98;0.80;;;;;;;;;;5008327;28;20038;-86
2023/10/25 08:11:54;;;;;;;0.52;0.40;;;;;;;;;;5009292;28;20046;-86
2023/10/25 08:14:20;;;;;;;0.55;0.55;;;;;;;;;;5040399;28;20042;-86
2023/10/25 08:16:45;;;;;;;0.90;0.70;;;;;;;;;;5033667;28;20030;-85
2023/10/25 08:19:11;;;;;;;3.22;0.80;;;;;;;;;;5029440;28;20041;-86
2023/10/25 08:21:37;;;;;;;1.70;1.10;;;;;;;;;;5026000;28;20384;-86
2023/10/25 08:24:05;;;;;;;2.63;1.17;;;;;;;;;;5037535;28;20566;-85
2023/10/25 08:26:34;;;;;;;1.38;0.98;;;;;;;;;;5038781;28;20637;-85
2023/10/25 08:29:02;;;;;;;1.10;0.70;;;;;;;;;;5022689;28;20041;-85
2023/10/25 08:31:27;;;;;;;1.58;0.82;;;;;;;;;;5019019;28;20028;-84
2023/10/25 08:33:53;;;;;;;2.45;0.90;;;;;;;;;;5016295;28;20451;-86
2023/10/25 08:36:18;;;;;;;1.10;0.80;;;;;;;;;;5028166;28;20061;-84
2023/10/25 08:38:44;;;;;;;1.00;0.70;;;;;;;;;;5030405;28;20030;-85
2023/10/25 08:41:09;;;;;;;1.13;0.70;;;;;;;;;;5025407;28;20036;-85
2023/10/25 08:43:37;;;;;;;0.60;0.60;;;;;;;;;;5022074;28;20025;-86
2023/10/25 08:46:04;;;;;;;1.95;0.75;;;;;;;;;;5012614;28;20038;-85
2023/10/25 08:48:31;;;;;;;2.97;1.10;;;;;;;;;;5023356;28;20124;-84
2023/10/25 08:50:58;;;;;;;1.98;0.80;;;;;;;;;;5029859;28;20034;-83
2023/10/25 08:53:26;;;;;;;3.80;0.75;;;;;;;;;;5024738;28;20044;-84
2023/10/25 08:55:53;;;;;;;1.52;0.85;;;;;;;;;;5020395;28;20061;-85
2023/10/25 08:58:19;;;;;;;0.77;0.60;;;;;;;;;;5031493;28;20037;-85
2023/10/25 09:00:50;;;;;;;0.82;0.60;;;;;;;;;;5037578;28;20030;-85
2023/10/25 09:03:30;;;;;;;1.10;0.60;;;;;;;;;;5041452;28;20037;-84
2023/10/25 09:05:56;;;;;;;0.70;0.50;;;;;;;;;;5036119;28;20047;-85
2023/10/25 09:08:24;;;;;;;1.02;0.60;;;;;;;;;;5031905;28;20041;-86
2023/10/25 09:11:09;;;;;;;2.15;0.57;;;;;;;;;;5035531;28;20041;-86
2023/10/25 09:13:43;;;;;;;0.40;0.40;;;;;;;;;;5056303;28;20060;-85
2023/10/25 09:16:11;;;;;;;0.50;0.50;;;;;;;;;;5032572;28;20033;-84
2023/10/25 09:18:38;;;;;;;2.30;0.40;;;;;;;;;;5033201;28;20506;-86
2023/10/25 09:21:06;;;;;;;1.95;0.52;;;;;;;;;;5033180;28;20064;-85
2023/10/25 09:23:35;;;;;;;0.65;0.60;;;;;;;;;;5043438;28;20026;-85
2023/10/25 09:26:04;;;;;;;0.50;0.50;;;;;;;;;;5033071;28;20045;-84
2023/10/25 09:28:30;;;;;;;2.15;0.70;;;;;;;;;;5031093;28;20042;-83
2023/10/25 09:30:58;;;;;;;0.60;0.60;;;;;;;;;;5028842;28;20046;-85
2023/10/25 09:33:25;;;;;;;1.30;0.85;;;;;;;;;;5042051;28;20053;-85
2023/10/25 09:35:51;;;;;;;1.13;0.90;;;;;;;;;;5040601;28;20045;-84
2023/10/25 09:38:17;;;;;;;1.10;0.70;;;;;;;;;;5032617;28;20034;-86
2023/10/25 09:40:44;;;;;;;0.95;0.70;;;;;;;;;;5029585;28;20038;-86
2023/10/25 09:43:15;;;;;;;1.15;0.80;;;;;;;;;;5038677;28;20041;-84
2023/10/25 09:45:43;;;;;;;2.33;0.80;;;;;;;;;;5039006;28;20037;-86
2023/10/25 09:48:13;;;;;;;0.98;0.68;;;;;;;;;;5017862;28;20041;-83
2023/10/25 09:50:46;;;;;;;0.70;0.70;;;;;;;;;;5023883;28;20061;-86
2023/10/25 09:53:30;;;;;;;0.82;0.73;;;;;;;;;;5035184;28;20049;-86
2023/10/25 09:56:02;;;;;;;0.65;0.60;;;;;;;;;;5023455;28;20034;-86
2023/10/25 09:58:32;;;;;;;0.63;0.50;;;;;;;;;;5033897;28;20048;-85
2023/10/25 10:00:59;;;;;;;2.58;0.57;;;;;;;;;;5029413;28;20052;-84
2023/10/25 10:03:35;;;;;;;0.90;0.57;;;;;;;;;;5034581;28;20509;-85
2023/10/25 10:06:09;;;;;;;1.92;0.50;;;;;;;;;;5040676;28;20030;-85
2023/10/25 10:08:47;;;;;;;0.52;0.50;;;;;;;;;;5033740;28;20041;-84
2023/10/25 10:11:21;;;;;;;0.30;0.30;;;;;;;;;;5027436;28;20064;-85
2023/10/25 10:14:25;;;;;;;0.55;0.40;;;;;;;;;;5032102;28;20036;-84
2023/10/25 10:16:51;;;;;;;0.50;0.50;;;;;;;;;;5036007;28;20042;-83
2023/10/25 10:19:16;;;;;;;0.55;0.50;;;;;;;;;;5034735;28;20037;-85
2023/10/25 10:22:08;;;;;;;0.70;0.60;;;;;;;;;;5028542;28;20030;-84
2023/10/25 10:25:00;;;;;;;1.08;0.68;;;;;;;;;;5032617;28;20037;-83
2023/10/25 10:27:40;;;;;;;0.50;0.40;;;;;;;;;;5039585;28;20042;-83
2023/10/25 10:30:29;;;;;;;0.40;0.40;;;;;;;;;;5034308;28;20053;-84
2023/10/25 10:32:55;;;;;;;0.82;0.57;;;;;;;;;;5006999;28;20136;-84
2023/10/25 10:35:21;;;;;;;0.73;0.50;;;;;;;;;;5041978;28;20053;-87
2023/10/25 10:37:54;;;;;;;0.77;0.50;;;;;;;;;;5036673;28;20030;-87
2023/10/25 10:40:20;;;;;;;3.28;1.55;;;;;;;;;;5031882;28;20044;-84
2023/10/25 10:42:46;;;;;;;0.47;0.47;;;;;;;;;;5026896;28;20395;-86
2023/10/25 10:45:14;;;;;;;0.40;0.40;;;;;;;;;;5033725;28;20044;-86
2023/10/25 10:48:12;;;;;;;0.20;0.20;;;;;;;;;;5034431;28;20056;-84
2023/10/25 10:50:40;;;;;;;1.45;0.28;;;;;;;;;;5019194;28;20050;-84
2023/10/25 10:53:06;;;;;;;1.58;1.10;;;;;;;;;;5026738;28;20042;-86
2023/10/25 10:55:32;;;;;;;0.60;0.40;;;;;;;;;;5029431;28;20086;-83
2023/10/25 10:57:58;;;;;;;0.20;0.20;;;;;;;;;;5039381;28;20061;-84
2023/10/25 11:00:25;;;;;;;0.40;0.20;;;;;;;;;;5032695;28;20053;-86
2023/10/25 11:02:51;;;;;;;4.28;1.20;;;;;;;;;;5028361;28;20407;-85
2023/10/25 11:05:20;;;;;;;0.65;0.30;;;;;;;;;;5028730;28;20044;-84
2023/10/25 11:07:53;;;;;;;0.30;0.20;;;;;;;;;;5039826;28;20030;-84
2023/10/25 11:10:19;;;;;;;;;;;;;;;;;;5035329;28;20045;-85
2023/10/25 11:12:45;;;;;;;0.30;0.30;;;;;;;;;;5029159;28;19921;-84
2023/10/25 11:15:11;;;;;;;0.20;0.20;;;;;;;;;;5026747;28;20041;-85
2023/10/25 11:17:37;;;;;;;0.75;0.20;;;;;;;;;;5043906;28;20034;-86
2023/10/25 11:20:03;;;;;;;0.20;0.20;;;;;;;;;;5036509;28;20522;-83
2023/10/25 11:22:31;;;;;;;0.30;0.30;;;;;;;;;;5021357;28;20045;-83
2023/10/25 11:25:08;;;;;;;0.70;0.30;;;;;;;;;;5002931;28;20060;-83
2023/10/25 11:27:34;;;;;;;0.20;0.20;;;;;;;;;;5019497;28;20475;-83
2023/10/25 11:30:00;;;;;;;0.40;0.40;;;;;;;;;;5006577;28;20046;-83
2023/10/25 11:32:29;;;;;;;1.73;0.40;;;;;;;;;;5010527;28;20041;-83
2023/10/25 11:34:56;;;;;;;3.38;0.47;;;;;;;;;;5013128;28;20087;-85
2023/10/25 11:37:43;;;;;;;0.40;0.30;;;;;;;;;;5020314;28;20036;-84
2023/10/25 11:40:09;;;;;;;0.82;0.30;;;;;;;;;;5030352;28;20044;-83
2023/10/25 11:42:35;;;;;;;0.38;0.20;;;;;;;;;;5025449;28;20017;-85
2023/10/25 11:45:05;;;;;;;1.67;0.30;;;;;;;;;;5018831;28;20480;-85
2023/10/25 11:47:32;;;;;;;0.22;0.22;;;;;;;;;;5016176;28;20121;-85
2023/10/25 11:50:01;;;;;;;0.90;0.30;;;;;;;;;;5028275;28;20129;-85
2023/10/25 11:52:29;;;;;;;0.30;0.30;;;;;;;;;;5023216;28;20562;-85
2023/10/25 11:54:56;;;;;;;1.02;0.60;;;;;;;;;;5029555;28;20044;-85
2023/10/25 11:57:22;;;;;;;0.80;0.60;;;;;;;;;;5015073;28;20034;-85
2023/10/25 11:59:48;;;;;;;2.20;1.40;;;;;;;;;;5022647;28;20037;-85
2023/10/25 12:02:13;;;;;;;0.40;0.40;;;;;;;;;;5025909;28;20080;-86
2023/10/25 12:04:39;;;;;;;1.33;0.70;;;;;;;;;;5022604;28;20510;-85
2023/10/25 12:07:04;;;;;;;0.98;0.50;;;;;;;;;;5017103;28;20152;-86
2023/10/25 12:09:29;;;;;;;0.45;0.30;;;;;;;;;;5026749;28;20040;-85
2023/10/25 12:11:55;;;;;;;0.30;0.30;;;;;;;;;;5025169;28;20085;-85
2023/10/25 12:14:20;;;;;;;0.32;0.30;;;;;;;;;;5022951;28;20068;-85
2023/10/25 12:16:46;;;;;;;0.30;0.20;;;;;;;;;;5018228;28;20037;-86
2023/10/25 12:19:11;;;;;;;0.32;0.20;;;;;;;;;;5016296;28;20493;-85
2023/10/25 12:21:37;;;;;;;0.30;0.30;;;;;;;;;;5029117;28;20026;-85
2023/10/25 12:24:03;;;;;;;0.30;0.30;;;;;;;;;;5023879;28;20546;-85
2023/10/25 12:26:28;;;;;;;0.20;0.20;;;;;;;;;;5020079;28;20029;-86
2023/10/25 12:28:54;;;;;;;0.35;0.30;;;;;;;;;;5009153;28;20037;-85
2023/10/25 12:31:19;;;;;;;1.92;0.30;;;;;;;;;;5012293;28;20188;-85
2023/10/25 12:33:44;;;;;;;2.63;0.30;;;;;;;;;;5025582;28;20056;-85
2023/10/25 12:36:10;;;;;;;0.30;0.30;;;;;;;;;;5023608;28;20029;-85
2023/10/25 12:38:35;;;;;;;1.30;0.30;;;;;;;;;;5021953;28;20032;-85
2023/10/25 12:41:01;;;;;;;0.40;0.40;;;;;;;;;;5018560;28;20030;-85
2023/10/25 12:43:26;;;;;;;0.30;0.30;;;;;;;;;;5016338;28;20467;-86
2023/10/25 12:45:52;;;;;;;0.45;0.45;;;;;;;;;;5023976;28;20034;-84
2023/10/25 12:48:17;;;;;;;0.85;0.35;;;;;;;;;;5029568;28;20033;-84
2023/10/25 12:50:43;;;;;;;1.13;0.40;;;;;;;;;;5024684;28;20120;-85
2023/10/25 12:53:08;;;;;;;0.63;0.30;;;;;;;;;;5020667;28;20041;-85
2023/10/25 12:55:34;;;;;;;2.65;0.50;;;;;;;;;;5018472;28;20058;-86
2023/10/25 12:58:01;;;;;;;0.57;0.47;;;;;;;;;;5024853;28;20037;-85
2023/10/25 13:00:27;;;;;;;0.77;0.40;;;;;;;;;;5038009;28;20063;-86
2023/10/25 13:02:52;;;;;;;0.75;0.45;;;;;;;;;;5016258;28;20462;-87
2023/10/25 13:05:18;;;;;;;0.35;0.30;;;;;;;;;;5023951;28;20030;-86
2023/10/25 13:07:44;;;;;;;0.90;0.60;;;;;;;;;;5022035;28;20449;-86
2023/10/25 13:10:09;;;;;;;0.47;0.40;;;;;;;;;;5036050;28;20042;-88
2023/10/25 13:12:36;;;;;;;1.60;0.30;;;;;;;;;;5033226;28;20062;-87
2023/10/25 13:15:03;;;;;;;0.30;0.30;;;;;;;;;;5027889;28;20041;-85
2023/10/25 13:17:28;;;;;;;0.40;0.40;;;;;;;;;;5022936;28;20064;-85
2023/10/25 13:19:55;;;;;;;0.45;0.45;;;;;;;;;;5028924;28;20033;-85
2023/10/25 13:22:21;;;;;;;0.65;0.55;;;;;;;;;;5027529;28;20080;-86
2023/10/25 13:24:48;;;;;;;1.55;0.60;;;;;;;;;;5030213;28;20034;-88
2023/10/25 13:27:13;;;;;;;0.50;0.40;;;;;;;;;;5024447;28;20034;-85
2023/10/25 13:29:40;;;;;;;0.30;0.30;;;;;;;;;;5026170;28;20046;-85
2023/10/25 13:32:07;;;;;;;0.73;0.35;;;;;;;;;;5036691;28;20096;-85
2023/10/25 13:34:33;;;;;;;0.30;0.30;;;;;;;;;;5030583;28;20157;-85
2023/10/25 13:36:58;;;;;;;1.95;0.60;;;;;;;;;;5025622;28;20049;-85
2023/10/25 13:39:24;;;;;;;0.82;0.55;;;;;;;;;;5021654;28;20081;-84
2023/10/25 13:41:50;;;;;;;0.63;0.47;;;;;;;;;;5034632;28;20150;-84
2023/10/25 13:44:16;;;;;;;0.73;0.52;;;;;;;;;;5029803;28;20410;-84
2023/10/25 13:46:41;;;;;;;1.42;0.80;;;;;;;;;;5026796;28;20061;-84
2023/10/25 13:49:07;;;;;;;1.05;0.77;;;;;;;;;;5021401;28;20095;-84
2023/10/25 13:51:32;;;;;;;1.08;0.80;;;;;;;;;;5030071;28;20044;-84
2023/10/25 13:53:58;;;;;;;1.02;0.80;;;;;;;;;;5033503;28;20049;-84
2023/10/25 13:56:23;;;;;;;0.80;0.80;;;;;;;;;;5026291;28;20029;-84
2023/10/25 13:58:48;;;;;;;1.77;1.00;;;;;;;;;;5023358;28;20030;-84
2023/10/25 14:01:14;;;;;;;1.23;0.90;;;;;;;;;;5024638;28;20121;-84
2023/10/25 14:03:39;;;;;;;1.08;0.93;;;;;;;;;;5034486;28;20029;-84
2023/10/25 14:06:05;;;;;;;1.17;0.85;;;;;;;;;;5027750;28;20048;-85
2023/10/25 14:08:31;;;;;;;3.20;1.17;;;;;;;;;;5024321;28;20044;-84
2023/10/25 14:10:57;;;;;;;2.85;0.93;;;;;;;;;;5019840;28;20092;-84
2023/10/25 14:13:23;;;;;;;1.30;0.80;;;;;;;;;;5022856;28;20038;-84
2023/10/25 14:15:48;;;;;;;1.13;0.80;;;;;;;;;;5003267;28;20104;-83
2023/10/25 14:18:14;;;;;;;0.77;0.70;;;;;;;;;;5007690;28;20042;-84
2023/10/25 14:20:40;;;;;;;0.90;0.70;;;;;;;;;;5017395;28;20535;-84
2023/10/25 14:23:06;;;;;;;1.25;0.80;;;;;;;;;;5030665;28;20071;-83
2023/10/25 14:25:40;;;;;;;1.80;0.60;;;;;;;;;;5029268;28;20419;-84
2023/10/25 14:28:09;;;;;;;1.70;0.70;;;;;;;;;;5024018;28;20041;-83
2023/10/25 14:30:43;;;;;;;0.82;0.70;;;;;;;;;;5017678;28;20133;-83
2023/10/25 14:33:09;;;;;;;1.23;0.60;;;;;;;;;;5027292;28;20040;-83
2023/10/25 14:35:36;;;;;;;0.68;0.60;;;;;;;;;;5030501;28;20041;-83
2023/10/25 14:38:03;;;;;;;1.23;0.80;;;;;;;;;;5023636;28;20053;-83
2023/10/25 14:40:29;;;;;;;0.75;0.60;;;;;;;;;;5021138;28;20045;-83
2023/10/25 14:42:55;;;;;;;0.60;0.60;;;;;;;;;;5020176;28;20037;-82